createdAt,value
2019-03-05T00:00:06.369Z,95123.656
2019-03-05T00:00:14.258Z,95127.531
2019-03-05T00:00:22.163Z,95123.984
2019-03-05T00:00:30.045Z,95121.25
2019-03-05T00:00:37.957Z,95123.406
2019-03-05T00:00:45.848Z,95124.976
2019-03-05T00:00:53.713Z,95126.546
2019-03-05T00:01:01.605Z,95126.875
2019-03-05T00:01:09.580Z,95127.789
2019-03-05T00:01:17.378Z,95132.257
2019-03-05T00:01:26.257Z,95116.125
2019-03-05T00:01:34.132Z,95122.015
2019-03-05T00:01:42.978Z,95121.523
2019-03-05T00:01:50.889Z,95122.906
2019-03-05T00:01:58.808Z,95125.304
2019-03-05T00:02:07.663Z,95124.078
2019-03-05T00:02:15.621Z,95121.671
2019-03-05T00:02:23.503Z,95126.39
2019-03-05T00:02:31.394Z,95127.203
2019-03-05T00:02:39.259Z,95125.054
2019-03-05T00:02:47.138Z,95123.562
2019-03-05T00:02:55.035Z,95120.937
2019-03-05T00:03:02.900Z,95129.359
2019-03-05T00:03:10.826Z,95121.421
2019-03-05T00:03:18.742Z,95127.039
2019-03-05T00:03:26.639Z,95124.148
2019-03-05T00:03:34.505Z,95129.609
2019-03-05T00:03:42.379Z,95130.523
2019-03-05T00:03:50.242Z,95132.585
2019-03-05T00:03:58.109Z,95126.296
2019-03-05T00:04:05.987Z,95124.898
2019-03-05T00:04:13.850Z,95125.64
2019-03-05T00:04:21.714Z,95116.953
2019-03-05T00:04:29.726Z,95126.968
2019-03-05T00:04:37.617Z,95127.468
2019-03-05T00:04:45.514Z,95127.46
2019-03-05T00:04:53.369Z,95124.898
2019-03-05T00:05:02.455Z,95124.57
2019-03-05T00:05:10.317Z,95128.945
2019-03-05T00:05:18.194Z,95128.617
2019-03-05T00:05:26.056Z,95123.984
2019-03-05T00:05:35.063Z,95126.14
2019-03-05T00:05:42.954Z,95126.89
2019-03-05T00:05:50.864Z,95132.507
2019-03-05T00:05:58.774Z,95126.796
2019-03-05T00:06:06.655Z,95129.046
2019-03-05T00:06:14.710Z,95126.718
2019-03-05T00:06:24.796Z,95126.546
2019-03-05T00:06:32.720Z,95125.898
2019-03-05T00:06:40.607Z,95128.617
2019-03-05T00:06:48.483Z,95124.828
2019-03-05T00:06:56.415Z,95129.703
2019-03-05T00:07:04.299Z,95132.171
2019-03-05T00:07:12.173Z,95128.539
2019-03-05T00:07:20.050Z,95129.109
2019-03-05T00:07:27.914Z,95129.125
2019-03-05T00:07:35.785Z,95130.531
2019-03-05T00:07:43.791Z,95128.703
2019-03-05T00:07:51.669Z,95124.578
2019-03-05T00:07:59.568Z,95128.203
2019-03-05T00:08:07.646Z,95125.234
2019-03-05T00:08:15.517Z,95124.656
2019-03-05T00:08:23.418Z,95126.32
2019-03-05T00:08:31.309Z,95126.726
2019-03-05T00:08:39.168Z,95125.328
2019-03-05T00:08:47.057Z,95128.718
2019-03-05T00:08:55.933Z,95125.82
2019-03-05T00:09:03.809Z,95129.203
2019-03-05T00:09:11.673Z,95129.203
2019-03-05T00:09:19.577Z,95127.632
2019-03-05T00:09:27.513Z,95125.078
2019-03-05T00:09:35.388Z,95122.101
2019-03-05T00:09:43.292Z,95126.156
2019-03-05T00:09:51.185Z,95122.75
2019-03-05T00:09:59.082Z,95123.093
2019-03-05T00:10:06.993Z,95126.234
2019-03-05T00:10:15.948Z,95127.062
2019-03-05T00:10:23.848Z,95129.539
2019-03-05T00:10:31.772Z,95122.593
2019-03-05T00:10:39.678Z,95123.835
2019-03-05T00:10:47.512Z,95120.945
2019-03-05T00:10:56.352Z,95129.718
2019-03-05T00:11:04.273Z,95125.164
2019-03-05T00:11:12.180Z,95123.656
2019-03-05T00:11:20.110Z,95125.742
2019-03-05T00:11:28.116Z,95126.726
2019-03-05T00:11:36.942Z,95131.109
2019-03-05T00:11:45.791Z,95130.945
2019-03-05T00:11:53.695Z,95134
2019-03-05T00:12:01.586Z,95132.859
2019-03-05T00:12:09.482Z,95129.046
2019-03-05T00:12:17.317Z,95128.39
2019-03-05T00:12:25.217Z,95128.718
2019-03-05T00:12:33.111Z,95127.14
2019-03-05T00:12:41.033Z,95129.125
2019-03-05T00:12:48.917Z,95129.546
2019-03-05T00:12:56.789Z,95130.203
2019-03-05T00:13:04.653Z,95130.375
2019-03-05T00:13:12.531Z,95128.14
2019-03-05T00:13:20.396Z,95129.296
2019-03-05T00:13:28.277Z,95133.343
2019-03-05T00:13:36.148Z,95128.89
2019-03-05T00:13:44.023Z,95129.125
2019-03-05T00:13:51.894Z,95126.078
2019-03-05T00:13:59.750Z,95131.367
2019-03-05T00:14:07.658Z,95124.835
2019-03-05T00:14:15.545Z,95131.937
2019-03-05T00:14:25.399Z,95132.109
2019-03-05T00:14:33.268Z,95133.429
2019-03-05T00:14:41.210Z,95136.328
2019-03-05T00:14:49.148Z,95135.093
2019-03-05T00:14:57.061Z,95131.781
2019-03-05T00:15:05.909Z,95134.671
2019-03-05T00:15:13.783Z,95134.843
2019-03-05T00:15:21.670Z,95142.765
2019-03-05T00:15:29.573Z,95140.546
2019-03-05T00:15:37.443Z,95134.179
2019-03-05T00:15:45.305Z,95139.218
2019-03-05T00:15:53.172Z,95138.648
2019-03-05T00:16:01.065Z,95136.406
2019-03-05T00:16:08.932Z,95137.64
2019-03-05T00:16:16.824Z,95133.093
2019-03-05T00:16:24.727Z,95135.578
2019-03-05T00:16:32.633Z,95137.312
2019-03-05T00:16:41.463Z,95138.648
2019-03-05T00:16:49.422Z,95132.859
2019-03-05T00:16:57.334Z,95130.875
2019-03-05T00:17:05.395Z,95131.531
2019-03-05T00:17:13.286Z,95136.5
2019-03-05T00:17:21.209Z,95137.984
2019-03-05T00:17:29.085Z,95135.5
2019-03-05T00:17:37.069Z,95133.164
2019-03-05T00:17:44.956Z,95135.828
2019-03-05T00:17:52.829Z,95138.812
2019-03-05T00:18:00.795Z,95137.656
2019-03-05T00:18:08.591Z,95143.437
2019-03-05T00:18:16.518Z,95139.312
2019-03-05T00:18:24.428Z,95137.812
2019-03-05T00:18:32.351Z,95140.625
2019-03-05T00:18:40.222Z,95139.054
2019-03-05T00:18:48.103Z,95136.164
2019-03-05T00:18:55.959Z,95133.515
2019-03-05T00:19:03.812Z,95138.976
2019-03-05T00:19:11.671Z,95139.062
2019-03-05T00:19:19.597Z,95139.14
2019-03-05T00:19:27.465Z,95143.765
2019-03-05T00:19:35.333Z,95146.335
2019-03-05T00:19:43.275Z,95140.468
2019-03-05T00:19:51.171Z,95142.281
2019-03-05T00:19:59.069Z,95144.265
2019-03-05T00:20:06.936Z,95139.468
2019-03-05T00:20:14.837Z,95141.625
2019-03-05T00:20:22.712Z,95137.984
2019-03-05T00:20:30.635Z,95131.859
2019-03-05T00:20:38.517Z,95136
2019-03-05T00:20:46.373Z,95136.328
2019-03-05T00:20:54.273Z,95136.984
2019-03-05T00:21:02.150Z,95140.132
2019-03-05T00:21:10.065Z,95138.312
2019-03-05T00:21:17.956Z,95139.968
2019-03-05T00:21:25.832Z,95139.062
2019-03-05T00:21:33.711Z,95141.296
2019-03-05T00:21:41.581Z,95140.109
2019-03-05T00:21:49.455Z,95140.218
2019-03-05T00:21:57.366Z,95139.945
2019-03-05T00:22:05.230Z,95143.773
2019-03-05T00:22:13.121Z,95140.796
2019-03-05T00:22:22.007Z,95140.546
2019-03-05T00:22:29.887Z,95142.375
2019-03-05T00:22:37.781Z,95141.046
2019-03-05T00:22:45.655Z,95141.375
2019-03-05T00:22:54.516Z,95146.25
2019-03-05T00:23:02.386Z,95146.25
2019-03-05T00:23:11.281Z,95141.046
2019-03-05T00:23:19.190Z,95145.015
2019-03-05T00:23:27.161Z,95142.945
2019-03-05T00:23:34.991Z,95146.843
2019-03-05T00:23:42.919Z,95145.015
2019-03-05T00:23:50.823Z,95142.757
2019-03-05T00:23:58.729Z,95144.601
2019-03-05T00:24:06.595Z,95146.421
2019-03-05T00:24:14.483Z,95142.921
2019-03-05T00:24:22.377Z,95145.429
2019-03-05T00:24:31.249Z,95144.515
2019-03-05T00:24:39.129Z,95141.851
2019-03-05T00:24:46.997Z,95145.843
2019-03-05T00:24:54.907Z,95146.507
2019-03-05T00:25:02.800Z,95146.07
2019-03-05T00:25:10.670Z,95144.414
2019-03-05T00:25:18.547Z,95143.921
2019-03-05T00:25:27.445Z,95145.578
2019-03-05T00:25:35.312Z,95144.023
2019-03-05T00:25:43.195Z,95144.437
2019-03-05T00:25:51.059Z,95149.734
2019-03-05T00:25:58.937Z,95149.046
2019-03-05T00:26:06.877Z,95148
2019-03-05T00:26:14.713Z,95146.007
2019-03-05T00:26:22.601Z,95144.187
2019-03-05T00:26:31.449Z,95148.906
2019-03-05T00:26:39.343Z,95148.406
2019-03-05T00:26:47.240Z,95145.906
2019-03-05T00:26:55.115Z,95146.507
2019-03-05T00:27:04.021Z,95148.046
2019-03-05T00:27:11.909Z,95141.765
2019-03-05T00:27:19.768Z,95152.359
2019-03-05T00:27:27.642Z,95145
2019-03-05T00:27:35.560Z,95150.531
2019-03-05T00:27:43.425Z,95153.031
2019-03-05T00:27:51.359Z,95149.156
2019-03-05T00:27:59.243Z,95151.382
2019-03-05T00:28:07.125Z,95146.07
2019-03-05T00:28:15.016Z,95147.718
2019-03-05T00:28:22.897Z,95149.625
2019-03-05T00:28:30.780Z,95149.648
2019-03-05T00:28:40.631Z,95156
2019-03-05T00:28:48.545Z,95157.828
2019-03-05T00:28:56.447Z,95153.015
2019-03-05T00:29:04.319Z,95152.515
2019-03-05T00:29:12.252Z,95151.796
2019-03-05T00:29:20.063Z,95156.492
2019-03-05T00:29:27.943Z,95154.117
2019-03-05T00:29:36.831Z,95151.195
2019-03-05T00:29:44.711Z,95153.429
2019-03-05T00:29:52.572Z,95153.625
2019-03-05T00:30:00.457Z,95158.085
2019-03-05T00:30:08.320Z,95154.359
2019-03-05T00:30:16.181Z,95148.875
2019-03-05T00:30:24.045Z,95152.515
2019-03-05T00:30:31.923Z,95150.531
2019-03-05T00:30:39.793Z,95153.125
2019-03-05T00:30:47.841Z,95152.609
2019-03-05T00:30:55.712Z,95154.937
2019-03-05T00:31:03.543Z,95149.539
2019-03-05T00:31:11.441Z,95149.468
2019-03-05T00:31:20.359Z,95159.14
2019-03-05T00:31:28.242Z,95153.265
2019-03-05T00:31:36.360Z,95155.25
2019-03-05T00:31:44.382Z,95149.539
2019-03-05T00:31:52.305Z,95154.343
2019-03-05T00:32:00.161Z,95160.796
2019-03-05T00:32:08.846Z,95151.203
2019-03-05T00:32:17.574Z,95156.25
2019-03-05T00:32:25.475Z,95152.437
2019-03-05T00:32:33.391Z,95155.25
2019-03-05T00:32:41.256Z,95157.562
2019-03-05T00:32:50.070Z,95154.937
2019-03-05T00:32:57.931Z,95157.156
2019-03-05T00:33:05.824Z,95154.093
2019-03-05T00:33:14.693Z,95158.14
2019-03-05T00:33:22.569Z,95154.421
2019-03-05T00:33:32.630Z,95153.687
2019-03-05T00:33:39.332Z,95153.687
2019-03-05T00:33:47.202Z,95155.5
2019-03-05T00:33:55.122Z,95156.906
2019-03-05T00:34:03.055Z,95153.359
2019-03-05T00:34:10.942Z,95152.273
2019-03-05T00:34:18.797Z,95153.187
2019-03-05T00:34:26.741Z,95153.179
2019-03-05T00:34:34.550Z,95157.734
2019-03-05T00:34:42.471Z,95155.5
2019-03-05T00:34:50.421Z,95158.64
2019-03-05T00:34:58.363Z,95154.843
2019-03-05T00:35:06.216Z,95149.382
2019-03-05T00:35:14.127Z,95155.25
2019-03-05T00:35:22.088Z,95152.859
2019-03-05T00:35:30.016Z,95158.226
2019-03-05T00:35:37.890Z,95159.062
2019-03-05T00:35:45.757Z,95158.312
2019-03-05T00:35:53.651Z,95157.156
2019-03-05T00:36:01.555Z,95157.085
2019-03-05T00:36:09.437Z,95159.64
2019-03-05T00:36:19.301Z,95160.96
2019-03-05T00:36:27.181Z,95156.164
2019-03-05T00:36:36.076Z,95160.382
2019-03-05T00:36:44.957Z,95161.296
2019-03-05T00:36:53.820Z,95159.968
2019-03-05T00:37:01.763Z,95163.609
2019-03-05T00:37:09.611Z,95158.484
2019-03-05T00:37:17.522Z,95160.726
2019-03-05T00:37:25.421Z,95163.609
2019-03-05T00:37:33.293Z,95160.976
2019-03-05T00:37:41.153Z,95164.953
2019-03-05T00:37:49.306Z,95164.937
2019-03-05T00:37:57.202Z,95169.734
2019-03-05T00:38:05.077Z,95161.39
2019-03-05T00:38:13.083Z,95159.562
2019-03-05T00:38:20.955Z,95164.601
2019-03-05T00:38:29.205Z,95164.273
2019-03-05T00:38:37.064Z,95161.046
2019-03-05T00:38:44.943Z,95160.398
2019-03-05T00:38:53.354Z,95162.617
2019-03-05T00:39:02.257Z,95160.398
2019-03-05T00:39:10.119Z,95160.632
2019-03-05T00:39:18.030Z,95160.234
2019-03-05T00:39:25.887Z,95155.109
2019-03-05T00:39:35.125Z,95165.031
2019-03-05T00:39:43.197Z,95158.984
2019-03-05T00:39:52.667Z,95165.093
2019-03-05T00:40:00.685Z,95163.937
2019-03-05T00:40:08.555Z,95163.281
2019-03-05T00:40:16.749Z,95166.585
2019-03-05T00:40:25.330Z,95162.125
2019-03-05T00:40:33.223Z,95163.539
2019-03-05T00:40:41.104Z,95166.585
2019-03-05T00:41:08.159Z,95165.515
2019-03-05T00:41:16.018Z,95166.179
2019-03-05T00:41:23.934Z,95166.75
2019-03-05T00:41:32.835Z,95164.031
2019-03-05T00:41:40.707Z,95163.539
2019-03-05T00:41:48.663Z,95165.773
2019-03-05T00:41:57.735Z,95164.359
2019-03-05T00:42:05.796Z,95162.539
2019-03-05T00:42:13.874Z,95163.695
2019-03-05T00:42:21.773Z,95161.39
2019-03-05T00:42:29.642Z,95168.734
2019-03-05T00:42:37.525Z,95161.062
2019-03-05T00:42:45.403Z,95161.062
2019-03-05T00:42:53.320Z,95165.507
2019-03-05T00:43:01.250Z,95165.265
2019-03-05T00:43:10.114Z,95166.25
2019-03-05T00:43:18.023Z,95163.531
2019-03-05T00:43:26.018Z,95164.031
2019-03-05T00:43:34.281Z,95165.351
2019-03-05T00:43:42.164Z,95168.406
2019-03-05T00:43:50.064Z,95172.375
2019-03-05T00:43:58.930Z,95170.562
2019-03-05T00:44:06.847Z,95173.453
2019-03-05T00:44:14.722Z,95173.375
2019-03-05T00:44:22.603Z,95164.031
2019-03-05T00:44:30.475Z,95161.804
2019-03-05T00:44:38.360Z,95173.203
2019-03-05T00:44:46.247Z,95168.664
2019-03-05T00:44:54.117Z,95174.281
2019-03-05T00:45:03.008Z,95174.781
2019-03-05T00:45:10.885Z,95172.625
2019-03-05T00:45:18.762Z,95169.492
2019-03-05T00:45:26.688Z,95179.328
2019-03-05T00:45:34.579Z,95175.117
2019-03-05T00:45:42.447Z,95178.664
2019-03-05T00:45:50.333Z,95179.156
2019-03-05T00:45:58.194Z,95171.398
2019-03-05T00:46:06.077Z,95171.484
2019-03-05T00:46:14.021Z,95169.828
2019-03-05T00:46:21.939Z,95168.921
2019-03-05T00:46:29.833Z,95168.656
2019-03-05T00:46:37.733Z,95172.875
2019-03-05T00:46:45.615Z,95171.07
2019-03-05T00:46:53.503Z,95169.82
2019-03-05T00:47:01.394Z,95172.554
2019-03-05T00:47:09.273Z,95169.906
2019-03-05T00:47:17.209Z,95169.656
2019-03-05T00:47:25.087Z,95171.89
2019-03-05T00:47:32.958Z,95169.328
2019-03-05T00:47:40.831Z,95165.859
2019-03-05T00:47:48.702Z,95169.156
2019-03-05T00:47:56.682Z,95168.593
2019-03-05T00:48:04.567Z,95172.468
2019-03-05T00:48:13.450Z,95172.468
2019-03-05T00:48:21.351Z,95167.757
2019-03-05T00:48:29.233Z,95168.335
2019-03-05T00:48:37.158Z,95172.14
2019-03-05T00:48:45.030Z,95172.14
2019-03-05T00:48:52.912Z,95169.171
2019-03-05T00:49:01.770Z,95169.578
2019-03-05T00:49:09.652Z,95167.093
2019-03-05T00:49:17.597Z,95169.085
2019-03-05T00:49:25.467Z,95168.171
2019-03-05T00:49:33.347Z,95172.64
2019-03-05T00:49:41.226Z,95168.5
2019-03-05T00:49:49.153Z,95167.843
2019-03-05T00:49:57.036Z,95170.242
2019-03-05T00:50:04.905Z,95168.328
2019-03-05T00:50:12.778Z,95163.46
2019-03-05T00:50:20.726Z,95172.96
2019-03-05T00:50:28.663Z,95167.265
2019-03-05T00:50:37.524Z,95164.359
2019-03-05T00:50:45.432Z,95169.414
2019-03-05T00:50:53.310Z,95172.71
2019-03-05T00:51:01.175Z,95173.296
2019-03-05T00:51:09.077Z,95170.578
2019-03-05T00:51:24.778Z,95171.64
2019-03-05T00:51:30.814Z,95169.906
2019-03-05T00:51:38.676Z,95170.734
2019-03-05T00:51:46.559Z,95173.132
2019-03-05T00:51:54.452Z,95170.578
2019-03-05T00:52:02.314Z,95176.195
2019-03-05T00:52:10.196Z,95172.968
2019-03-05T00:52:18.055Z,95168.093
2019-03-05T00:52:26.928Z,95175.703
2019-03-05T00:52:34.789Z,95173.718
2019-03-05T00:52:42.695Z,95169.156
2019-03-05T00:52:50.569Z,95168
2019-03-05T00:52:58.467Z,95169.578
2019-03-05T00:53:06.336Z,95164.453
2019-03-05T00:53:14.224Z,95170.906
2019-03-05T00:53:22.144Z,95174.625
2019-03-05T00:53:30.036Z,95177.851
2019-03-05T00:53:37.928Z,95185.796
2019-03-05T00:53:45.828Z,95174.296
2019-03-05T00:53:53.699Z,95171.398
2019-03-05T00:54:01.594Z,95175.281
2019-03-05T00:54:09.459Z,95174.382
2019-03-05T00:54:17.338Z,95171.234
2019-03-05T00:54:25.261Z,95171.398
2019-03-05T00:54:33.131Z,95174.218
2019-03-05T00:54:41.069Z,95172.484
2019-03-05T00:54:49.005Z,95172.14
2019-03-05T00:54:56.885Z,95171.07
2019-03-05T00:55:04.747Z,95173.796
2019-03-05T00:55:12.635Z,95171.07
2019-03-05T00:55:20.517Z,95168.921
2019-03-05T00:55:28.386Z,95173.218
2019-03-05T00:55:36.254Z,95173.468
2019-03-05T00:55:44.113Z,95166.515
2019-03-05T00:55:53.046Z,95165.781
2019-03-05T00:56:01.947Z,95166.937
2019-03-05T00:56:09.815Z,95177.187
2019-03-05T00:56:17.668Z,95173.796
2019-03-05T00:56:25.540Z,95168.093
2019-03-05T00:56:33.468Z,95174.796
2019-03-05T00:56:41.327Z,95171.82
2019-03-05T00:56:49.227Z,95168.429
2019-03-05T00:56:57.096Z,95170.906
2019-03-05T00:57:04.999Z,95174.796
2019-03-05T00:57:12.892Z,95180.828
2019-03-05T00:57:20.770Z,95178.515
2019-03-05T00:57:28.647Z,95177.937
2019-03-05T00:57:36.521Z,95172.554
2019-03-05T00:57:44.423Z,95171.484
2019-03-05T00:57:52.284Z,95182.312
2019-03-05T00:58:00.165Z,95177.531
2019-03-05T00:58:08.035Z,95170.828
2019-03-05T00:58:15.929Z,95176.195
2019-03-05T00:58:24.808Z,95168.75
2019-03-05T00:58:32.683Z,95172.64
2019-03-05T00:58:40.562Z,95168.593
2019-03-05T00:58:48.433Z,95179.171
2019-03-05T00:58:56.301Z,95176.781
2019-03-05T00:59:04.200Z,95179.171
2019-03-05T00:59:12.050Z,95179.421
2019-03-05T00:59:19.907Z,95180.335
2019-03-05T00:59:27.768Z,95175.71
2019-03-05T00:59:35.640Z,95181.406
2019-03-05T00:59:43.541Z,95174.875
2019-03-05T00:59:51.432Z,95176.937
2019-03-05T00:59:59.329Z,95185.71
2019-03-05T01:00:07.189Z,95177.359
2019-03-05T01:00:17.090Z,95187.187
2019-03-05T01:00:24.958Z,95180.421
2019-03-05T01:00:32.814Z,95184.312
2019-03-05T01:00:40.668Z,95186.953
2019-03-05T01:00:48.555Z,95185.875
2019-03-05T01:00:56.415Z,95180.671
2019-03-05T01:01:04.275Z,95182.406
2019-03-05T01:01:13.122Z,95179.921
2019-03-05T01:01:20.979Z,95173.39
2019-03-05T01:01:28.844Z,95176.375
2019-03-05T01:01:36.709Z,95175.218
2019-03-05T01:01:46.562Z,95175.265
2019-03-05T01:01:53.490Z,95177.687
2019-03-05T01:02:01.368Z,95181.656
2019-03-05T01:02:09.232Z,95176.867
2019-03-05T01:02:17.084Z,95182.234
2019-03-05T01:02:24.996Z,95179.898
2019-03-05T01:02:32.872Z,95181.828
2019-03-05T01:02:40.750Z,95177.25
2019-03-05T01:02:48.593Z,95172.89
2019-03-05T01:02:56.469Z,95170.656
2019-03-05T01:03:05.351Z,95178.437
2019-03-05T01:03:14.218Z,95175.109
2019-03-05T01:03:23.065Z,95177.281
2019-03-05T01:03:32.963Z,95172.562
2019-03-05T01:03:41.825Z,95176.867
2019-03-05T01:03:49.701Z,95176.867
2019-03-05T01:03:57.596Z,95177.281
2019-03-05T01:04:05.464Z,95171.078
2019-03-05T01:04:13.343Z,95175.375
2019-03-05T01:04:21.208Z,95181.554
2019-03-05T01:04:29.083Z,95177.421
2019-03-05T01:04:36.963Z,95184.968
2019-03-05T01:04:44.886Z,95182.382
2019-03-05T01:04:52.777Z,95177.5
2019-03-05T01:05:00.673Z,95173.039
2019-03-05T01:05:08.612Z,95174.195
2019-03-05T01:05:16.497Z,95169.976
2019-03-05T01:05:24.376Z,95169.734
2019-03-05T01:05:33.244Z,95170.562
2019-03-05T01:05:41.128Z,95168.078
2019-03-05T01:05:49.000Z,95170.906
2019-03-05T01:05:56.865Z,95165.515
2019-03-05T01:06:05.751Z,95168.921
2019-03-05T01:06:13.614Z,95172.875
2019-03-05T01:06:21.516Z,95167
2019-03-05T01:06:29.385Z,95170.718
2019-03-05T01:06:37.279Z,95168.906
2019-03-05T01:06:45.135Z,95171.546
2019-03-05T01:06:53.003Z,95176.843
2019-03-05T01:07:00.947Z,95168.757
2019-03-05T01:07:08.856Z,95180.007
2019-03-05T01:07:16.718Z,95179.984
2019-03-05T01:07:24.596Z,95185.281
2019-03-05T01:07:32.522Z,95176.093
2019-03-05T01:07:40.374Z,95168.484
2019-03-05T01:07:48.265Z,95168.429
2019-03-05T01:07:56.133Z,95171.078
2019-03-05T01:08:04.986Z,95175.437
2019-03-05T01:08:12.863Z,95169.976
2019-03-05T01:08:21.747Z,95167.828
2019-03-05T01:08:29.610Z,95169.398
2019-03-05T01:08:37.501Z,95163.96
2019-03-05T01:08:45.369Z,95164.125
2019-03-05T01:08:54.240Z,95162.539
2019-03-05T01:09:02.104Z,95161.867
2019-03-05T01:09:09.964Z,95162.203
2019-03-05T01:09:17.868Z,95164.601
2019-03-05T01:09:25.764Z,95160.296
2019-03-05T01:09:33.658Z,95163.296
2019-03-05T01:09:41.566Z,95165.671
2019-03-05T01:09:49.464Z,95173.375
2019-03-05T01:09:57.328Z,95161.953
2019-03-05T01:10:05.196Z,95163.359
2019-03-05T01:10:13.065Z,95168.156
2019-03-05T01:10:20.986Z,95163.859
2019-03-05T01:10:29.850Z,95167.828
2019-03-05T01:10:37.725Z,95170.226
2019-03-05T01:10:46.584Z,95164.601
2019-03-05T01:10:54.464Z,95157.492
2019-03-05T01:11:02.370Z,95159.804
2019-03-05T01:11:10.274Z,95157.328
2019-03-05T01:11:18.156Z,95155.593
2019-03-05T01:11:26.056Z,95157
2019-03-05T01:11:33.916Z,95160.382
2019-03-05T01:11:41.806Z,95165.921
2019-03-05T01:11:50.687Z,95165.179
2019-03-05T01:11:58.548Z,95163.695
2019-03-05T01:12:06.419Z,95170.226
2019-03-05T01:12:14.309Z,95160.312
2019-03-05T01:12:22.199Z,95156
2019-03-05T01:12:30.072Z,95162.453
2019-03-05T01:12:37.958Z,95161.296
2019-03-05T01:12:45.834Z,95161.625
2019-03-05T01:12:53.732Z,95163.937
2019-03-05T01:13:01.588Z,95160.554
2019-03-05T01:13:09.458Z,95156.335
2019-03-05T01:13:17.328Z,95158.82
2019-03-05T01:13:25.202Z,95159.812
2019-03-05T01:13:33.063Z,95155.093
2019-03-05T01:13:40.949Z,95158.492
2019-03-05T01:13:48.852Z,95157.492
2019-03-05T01:13:56.757Z,95155.179
2019-03-05T01:14:04.637Z,95160.218
2019-03-05T01:14:12.512Z,95153.515
2019-03-05T01:14:20.364Z,95148.89
2019-03-05T01:14:28.246Z,95158.312
2019-03-05T01:14:36.162Z,95159.156
2019-03-05T01:14:44.043Z,95151.781
2019-03-05T01:14:51.950Z,95144.515
2019-03-05T01:14:59.832Z,95149.14
2019-03-05T01:15:07.701Z,95158.734
2019-03-05T01:15:15.587Z,95154.851
2019-03-05T01:15:23.444Z,95151.375
2019-03-05T01:15:31.323Z,95153.687
2019-03-05T01:15:39.190Z,95160.554
2019-03-05T01:15:47.116Z,95144.671
2019-03-05T01:15:54.990Z,95140.617
2019-03-05T01:16:02.878Z,95146.414
2019-03-05T01:16:10.760Z,95144.757
2019-03-05T01:16:18.616Z,95143.843
2019-03-05T01:16:26.486Z,95146.328
2019-03-05T01:16:34.350Z,95150.875
2019-03-05T01:16:42.227Z,95146.984
2019-03-05T01:16:50.092Z,95152.531
2019-03-05T01:16:58.986Z,95151.453
2019-03-05T01:17:06.851Z,95146.242
2019-03-05T01:17:14.787Z,95149.39
2019-03-05T01:17:22.670Z,95148.734
2019-03-05T01:17:31.561Z,95147.078
2019-03-05T01:17:40.426Z,95139.218
2019-03-05T01:17:48.313Z,95147.656
2019-03-05T01:17:56.176Z,95143.445
2019-03-05T01:18:04.106Z,95144.015
2019-03-05T01:18:12.026Z,95148.07
2019-03-05T01:18:19.895Z,95145.421
2019-03-05T01:18:27.758Z,95143.937
2019-03-05T01:18:35.652Z,95142.453
2019-03-05T01:18:43.539Z,95147.242
2019-03-05T01:18:51.400Z,95143.773
2019-03-05T01:18:59.277Z,95141.296
2019-03-05T01:19:07.197Z,95143.773
2019-03-05T01:19:15.051Z,95150.382
2019-03-05T01:19:22.953Z,95147.656
2019-03-05T01:19:30.861Z,95146.906
2019-03-05T01:19:38.794Z,95149.554
2019-03-05T01:19:46.684Z,95150.226
2019-03-05T01:19:54.572Z,95146.25
2019-03-05T01:20:02.446Z,95151.468
2019-03-05T01:20:10.324Z,95148.484
2019-03-05T01:20:18.250Z,95151.71
2019-03-05T01:20:26.122Z,95150.64
2019-03-05T01:20:33.989Z,95150.062
2019-03-05T01:20:41.842Z,95150.64
2019-03-05T01:20:49.719Z,95146.171
2019-03-05T01:20:57.623Z,95146.664
2019-03-05T01:21:05.531Z,95147.578
2019-03-05T01:21:13.476Z,95144.765
2019-03-05T01:21:21.381Z,95140.625
2019-03-05T01:21:29.271Z,95149.484
2019-03-05T01:21:38.148Z,95143.359
2019-03-05T01:21:46.012Z,95151.718
2019-03-05T01:21:53.909Z,95144.601
2019-03-05T01:22:01.781Z,95149.554
2019-03-05T01:22:09.668Z,95142.359
2019-03-05T01:22:17.544Z,95143.359
2019-03-05T01:22:26.429Z,95147.578
2019-03-05T01:22:34.292Z,95144.109
2019-03-05T01:22:42.226Z,95144.843
2019-03-05T01:22:50.086Z,95146.843
2019-03-05T01:22:57.962Z,95149.07
2019-03-05T01:23:05.897Z,95150.046
2019-03-05T01:23:13.769Z,95145.757
2019-03-05T01:23:21.652Z,95148.984
2019-03-05T01:23:29.510Z,95149.07
2019-03-05T01:23:37.415Z,95153.039
2019-03-05T01:23:45.256Z,95150.304
2019-03-05T01:23:53.154Z,95140.796
2019-03-05T01:24:01.034Z,95147.085
2019-03-05T01:24:08.935Z,95145.593
2019-03-05T01:24:16.810Z,95149.906
2019-03-05T01:24:24.700Z,95149.734
2019-03-05T01:24:32.628Z,95147.5
2019-03-05T01:24:40.992Z,95146.921
2019-03-05T01:24:48.926Z,95143.109
2019-03-05T01:24:56.795Z,95150.484
2019-03-05T01:25:04.668Z,95145.515
2019-03-05T01:25:13.583Z,95149.398
2019-03-05T01:25:21.468Z,95148.406
2019-03-05T01:25:30.330Z,95147.414
2019-03-05T01:25:38.254Z,95149.82
2019-03-05T01:25:46.120Z,95150.718
2019-03-05T01:25:54.008Z,95149.242
2019-03-05T01:26:01.925Z,95146.593
2019-03-05T01:26:09.830Z,95149.32
2019-03-05T01:26:17.692Z,95152.21
2019-03-05T01:26:26.552Z,95150.484
2019-03-05T01:26:34.426Z,95147.312
2019-03-05T01:26:42.289Z,95150.234
2019-03-05T01:26:50.150Z,95142.796
2019-03-05T01:26:58.036Z,95144.773
2019-03-05T01:27:05.928Z,95148.242
2019-03-05T01:27:13.780Z,95147.085
2019-03-05T01:27:21.668Z,95143.781
2019-03-05T01:27:29.554Z,95143.289
2019-03-05T01:27:37.482Z,95147.64
2019-03-05T01:27:45.340Z,95145.843
2019-03-05T01:27:53.249Z,95144.671
2019-03-05T01:28:01.114Z,95148.906
2019-03-05T01:28:08.975Z,95145.757
2019-03-05T01:28:17.833Z,95148.078
2019-03-05T01:28:25.709Z,95147.171
2019-03-05T01:28:33.628Z,95149.82
2019-03-05T01:28:41.528Z,95145.515
2019-03-05T01:28:49.395Z,95142.296
2019-03-05T01:28:58.258Z,95142.796
2019-03-05T01:29:06.138Z,95146.421
2019-03-05T01:29:14.044Z,95144.601
2019-03-05T01:29:21.956Z,95141.796
2019-03-05T01:29:29.794Z,95146.421
2019-03-05T01:29:37.730Z,95146.921
2019-03-05T01:29:45.600Z,95155.515
2019-03-05T01:29:53.488Z,95145.765
2019-03-05T01:30:01.416Z,95141.296
2019-03-05T01:30:09.308Z,95147.5
2019-03-05T01:30:17.170Z,95147.75
2019-03-05T01:30:25.038Z,95149.398
2019-03-05T01:30:33.898Z,95141.71
2019-03-05T01:30:41.786Z,95149.234
2019-03-05T01:30:49.648Z,95146.093
2019-03-05T01:30:57.517Z,95152.875
2019-03-05T01:31:05.373Z,95148.734
2019-03-05T01:31:13.252Z,95149.484
2019-03-05T01:31:21.132Z,95150.64
2019-03-05T01:31:29.042Z,95154.195
2019-03-05T01:31:36.925Z,95152.218
2019-03-05T01:31:44.779Z,95152.546
2019-03-05T01:31:52.725Z,95148.906
2019-03-05T01:32:00.601Z,95152.218
2019-03-05T01:32:09.471Z,95156.25
2019-03-05T01:32:17.330Z,95154.445